sensor_id;sensor_type;location;lat;lon;timestamp;P1;durP1;ratioP1;P2;durP2;ratioP2
74658;SDS011;63186;51.204;6.536;2024-03-06T00:02:08;18.80;;;9.35;;
74658;SDS011;63186;51.204;6.536;2024-03-06T00:04:33;17.00;;;10.50;;
74658;SDS011;63186;51.204;6.536;2024-03-06T00:06:59;23.63;;;10.20;;
74658;SDS011;63186;51.204;6.536;2024-03-06T00:09:25;20.02;;;10.05;;
74658;SDS011;63186;51.204;6.536;2024-03-06T00:14:19;19.60;;;10.23;;
74658;SDS011;63186;51.204;6.536;2024-03-06T00:16:46;17.55;;;10.05;;
74658;SDS011;63186;51.204;6.536;2024-03-06T00:19:12;19.08;;;9.57;;
74658;SDS011;63186;51.204;6.536;2024-03-06T00:21:38;19.27;;;10.05;;
74658;SDS011;63186;51.204;6.536;2024-03-06T00:24:04;20.23;;;9.85;;
74658;SDS011;63186;51.204;6.536;2024-03-06T00:26:29;16.20;;;8.93;;
74658;SDS011;63186;51.204;6.536;2024-03-06T00:28:55;17.60;;;9.38;;
74658;SDS011;63186;51.204;6.536;2024-03-06T00:31:20;19.33;;;9.88;;
74658;SDS011;63186;51.204;6.536;2024-03-06T00:33:46;16.08;;;8.75;;
74658;SDS011;63186;51.204;6.536;2024-03-06T00:36:11;15.32;;;8.32;;
74658;SDS011;63186;51.204;6.536;2024-03-06T00:38:36;18.35;;;7.80;;
74658;SDS011;63186;51.204;6.536;2024-03-06T00:41:02;18.55;;;9.68;;
74658;SDS011;63186;51.204;6.536;2024-03-06T00:43:27;19.80;;;10.48;;
74658;SDS011;63186;51.204;6.536;2024-03-06T00:45:53;18.63;;;8.75;;
74658;SDS011;63186;51.204;6.536;2024-03-06T00:48:18;17.97;;;9.70;;
74658;SDS011;63186;51.204;6.536;2024-03-06T00:50:45;15.07;;;8.38;;
74658;SDS011;63186;51.204;6.536;2024-03-06T00:53:10;14.10;;;7.75;;
74658;SDS011;63186;51.204;6.536;2024-03-06T00:55:36;13.43;;;7.90;;
74658;SDS011;63186;51.204;6.536;2024-03-06T00:58:01;15.48;;;8.73;;
74658;SDS011;63186;51.204;6.536;2024-03-06T01:00:26;12.17;;;8.03;;
74658;SDS011;63186;51.204;6.536;2024-03-06T01:02:52;11.85;;;6.00;;
74658;SDS011;63186;51.204;6.536;2024-03-06T01:05:17;12.60;;;6.43;;
74658;SDS011;63186;51.204;6.536;2024-03-06T01:07:42;12.13;;;7.40;;
74658;SDS011;63186;51.204;6.536;2024-03-06T01:10:08;12.03;;;6.93;;
74658;SDS011;63186;51.204;6.536;2024-03-06T01:12:34;14.93;;;8.50;;
74658;SDS011;63186;51.204;6.536;2024-03-06T01:14:59;12.82;;;6.85;;
74658;SDS011;63186;51.204;6.536;2024-03-06T01:17:25;15.73;;;8.55;;
74658;SDS011;63186;51.204;6.536;2024-03-06T01:19:50;12.48;;;7.55;;
74658;SDS011;63186;51.204;6.536;2024-03-06T01:22:16;19.67;;;8.60;;
74658;SDS011;63186;51.204;6.536;2024-03-06T01:24:42;14.15;;;7.55;;
74658;SDS011;63186;51.204;6.536;2024-03-06T01:27:07;17.77;;;8.80;;
74658;SDS011;63186;51.204;6.536;2024-03-06T01:29:33;15.50;;;8.48;;
74658;SDS011;63186;51.204;6.536;2024-03-06T01:31:58;15.27;;;8.43;;
74658;SDS011;63186;51.204;6.536;2024-03-06T01:34:24;15.15;;;9.20;;
74658;SDS011;63186;51.204;6.536;2024-03-06T01:36:50;18.75;;;9.80;;
74658;SDS011;63186;51.204;6.536;2024-03-06T01:39:16;20.45;;;10.25;;
74658;SDS011;63186;51.204;6.536;2024-03-06T01:41:45;18.83;;;10.43;;
74658;SDS011;63186;51.204;6.536;2024-03-06T01:44:11;21.40;;;9.90;;
74658;SDS011;63186;51.204;6.536;2024-03-06T01:46:37;22.45;;;11.52;;
74658;SDS011;63186;51.204;6.536;2024-03-06T01:49:03;19.55;;;10.27;;
74658;SDS011;63186;51.204;6.536;2024-03-06T01:51:29;20.52;;;11.68;;
74658;SDS011;63186;51.204;6.536;2024-03-06T01:53:54;17.52;;;10.63;;
74658;SDS011;63186;51.204;6.536;2024-03-06T01:56:20;22.45;;;11.13;;
74658;SDS011;63186;51.204;6.536;2024-03-06T01:58:46;21.73;;;11.88;;
74658;SDS011;63186;51.204;6.536;2024-03-06T02:01:12;21.85;;;12.27;;
74658;SDS011;63186;51.204;6.536;2024-03-06T02:03:37;17.88;;;9.00;;
74658;SDS011;63186;51.204;6.536;2024-03-06T02:06:03;14.90;;;9.38;;
74658;SDS011;63186;51.204;6.536;2024-03-06T02:08:29;15.10;;;7.63;;
74658;SDS011;63186;51.204;6.536;2024-03-06T02:10:55;17.38;;;9.18;;
74658;SDS011;63186;51.204;6.536;2024-03-06T02:13:21;18.83;;;9.35;;
74658;SDS011;63186;51.204;6.536;2024-03-06T02:15:46;14.73;;;7.78;;
74658;SDS011;63186;51.204;6.536;2024-03-06T02:18:11;15.15;;;7.15;;
74658;SDS011;63186;51.204;6.536;2024-03-06T02:20:40;15.25;;;8.15;;
74658;SDS011;63186;51.204;6.536;2024-03-06T02:23:06;14.38;;;8.38;;
74658;SDS011;63186;51.204;6.536;2024-03-06T02:25:32;16.17;;;7.65;;
74658;SDS011;63186;51.204;6.536;2024-03-06T02:27:57;15.45;;;8.10;;
74658;SDS011;63186;51.204;6.536;2024-03-06T02:30:24;18.77;;;8.80;;
74658;SDS011;63186;51.204;6.536;2024-03-06T02:32:49;14.32;;;7.93;;
74658;SDS011;63186;51.204;6.536;2024-03-06T02:35:14;15.63;;;8.90;;
74658;SDS011;63186;51.204;6.536;2024-03-06T02:37:43;17.73;;;8.32;;
74658;SDS011;63186;51.204;6.536;2024-03-06T02:40:09;19.13;;;7.95;;
74658;SDS011;63186;51.204;6.536;2024-03-06T02:42:35;39.42;;;8.23;;
74658;SDS011;63186;51.204;6.536;2024-03-06T02:45:04;34.22;;;8.63;;
74658;SDS011;63186;51.204;6.536;2024-03-06T02:47:33;42.85;;;8.73;;
74658;SDS011;63186;51.204;6.536;2024-03-06T02:49:59;31.85;;;8.43;;
74658;SDS011;63186;51.204;6.536;2024-03-06T02:52:24;45.57;;;10.83;;
74658;SDS011;63186;51.204;6.536;2024-03-06T02:54:49;22.00;;;7.40;;
74658;SDS011;63186;51.204;6.536;2024-03-06T02:57:14;21.20;;;7.53;;
74658;SDS011;63186;51.204;6.536;2024-03-06T02:59:40;18.80;;;7.72;;
74658;SDS011;63186;51.204;6.536;2024-03-06T03:02:05;18.98;;;7.43;;
74658;SDS011;63186;51.204;6.536;2024-03-06T03:04:31;19.00;;;7.90;;
74658;SDS011;63186;51.204;6.536;2024-03-06T03:06:57;24.55;;;8.95;;
74658;SDS011;63186;51.204;6.536;2024-03-06T03:09:22;17.92;;;8.75;;
74658;SDS011;63186;51.204;6.536;2024-03-06T03:11:48;21.73;;;8.70;;
74658;SDS011;63186;51.204;6.536;2024-03-06T03:14:13;16.92;;;8.55;;
74658;SDS011;63186;51.204;6.536;2024-03-06T03:16:39;18.05;;;8.32;;
74658;SDS011;63186;51.204;6.536;2024-03-06T03:19:04;18.77;;;9.00;;
74658;SDS011;63186;51.204;6.536;2024-03-06T03:21:30;16.95;;;8.15;;
74658;SDS011;63186;51.204;6.536;2024-03-06T03:23:55;26.50;;;8.75;;
74658;SDS011;63186;51.204;6.536;2024-03-06T03:26:20;26.48;;;8.23;;
74658;SDS011;63186;51.204;6.536;2024-03-06T03:28:46;48.20;;;10.83;;
74658;SDS011;63186;51.204;6.536;2024-03-06T03:31:11;36.80;;;10.10;;
74658;SDS011;63186;51.204;6.536;2024-03-06T03:33:39;28.50;;;9.13;;
74658;SDS011;63186;51.204;6.536;2024-03-06T03:36:06;24.00;;;11.10;;
74658;SDS011;63186;51.204;6.536;2024-03-06T03:38:32;25.40;;;9.65;;
74658;SDS011;63186;51.204;6.536;2024-03-06T03:41:00;25.23;;;9.18;;
74658;SDS011;63186;51.204;6.536;2024-03-06T03:43:26;22.45;;;7.97;;
74658;SDS011;63186;51.204;6.536;2024-03-06T03:45:51;17.37;;;7.00;;
74658;SDS011;63186;51.204;6.536;2024-03-06T03:48:17;18.75;;;8.77;;
74658;SDS011;63186;51.204;6.536;2024-03-06T03:50:42;24.43;;;7.87;;
74658;SDS011;63186;51.204;6.536;2024-03-06T03:53:07;24.47;;;8.33;;
74658;SDS011;63186;51.204;6.536;2024-03-06T03:55:33;18.53;;;8.70;;
74658;SDS011;63186;51.204;6.536;2024-03-06T03:57:58;25.10;;;8.02;;
74658;SDS011;63186;51.204;6.536;2024-03-06T04:00:23;15.70;;;8.05;;
74658;SDS011;63186;51.204;6.536;2024-03-06T04:02:49;24.23;;;8.55;;
74658;SDS011;63186;51.204;6.536;2024-03-06T04:05:14;20.67;;;9.02;;
74658;SDS011;63186;51.204;6.536;2024-03-06T04:07:39;29.93;;;8.03;;
74658;SDS011;63186;51.204;6.536;2024-03-06T04:10:05;25.80;;;9.90;;
74658;SDS011;63186;51.204;6.536;2024-03-06T04:12:31;18.38;;;10.15;;
74658;SDS011;63186;51.204;6.536;2024-03-06T04:14:57;16.42;;;9.05;;
74658;SDS011;63186;51.204;6.536;2024-03-06T04:17:22;19.73;;;8.70;;
74658;SDS011;63186;51.204;6.536;2024-03-06T04:19:48;21.92;;;8.95;;
74658;SDS011;63186;51.204;6.536;2024-03-06T04:22:13;26.85;;;9.68;;
74658;SDS011;63186;51.204;6.536;2024-03-06T04:24:42;17.80;;;9.75;;
74658;SDS011;63186;51.204;6.536;2024-03-06T04:27:07;21.52;;;8.75;;
74658;SDS011;63186;51.204;6.536;2024-03-06T04:29:33;18.00;;;9.13;;
74658;SDS011;63186;51.204;6.536;2024-03-06T04:31:58;16.40;;;8.60;;
74658;SDS011;63186;51.204;6.536;2024-03-06T04:34:24;16.52;;;8.13;;
74658;SDS011;63186;51.204;6.536;2024-03-06T04:36:49;13.63;;;7.83;;
74658;SDS011;63186;51.204;6.536;2024-03-06T04:39:14;14.00;;;7.53;;
74658;SDS011;63186;51.204;6.536;2024-03-06T04:41:39;13.33;;;7.57;;
74658;SDS011;63186;51.204;6.536;2024-03-06T04:44:05;18.43;;;9.80;;
74658;SDS011;63186;51.204;6.536;2024-03-06T04:46:31;28.48;;;9.25;;
74658;SDS011;63186;51.204;6.536;2024-03-06T04:49:14;28.55;;;11.38;;
74658;SDS011;63186;51.204;6.536;2024-03-06T04:51:39;30.50;;;12.77;;
74658;SDS011;63186;51.204;6.536;2024-03-06T04:54:05;22.70;;;11.33;;
74658;SDS011;63186;51.204;6.536;2024-03-06T04:56:30;29.83;;;12.10;;
74658;SDS011;63186;51.204;6.536;2024-03-06T04:58:55;22.90;;;10.77;;
74658;SDS011;63186;51.204;6.536;2024-03-06T05:01:21;17.90;;;8.77;;
74658;SDS011;63186;51.204;6.536;2024-03-06T05:03:46;19.48;;;8.68;;
74658;SDS011;63186;51.204;6.536;2024-03-06T05:06:11;17.47;;;9.60;;
74658;SDS011;63186;51.204;6.536;2024-03-06T05:08:37;18.80;;;7.70;;
74658;SDS011;63186;51.204;6.536;2024-03-06T05:11:03;17.48;;;8.57;;
74658;SDS011;63186;51.204;6.536;2024-03-06T05:13:29;14.70;;;8.43;;
74658;SDS011;63186;51.204;6.536;2024-03-06T05:15:54;14.63;;;7.87;;
74658;SDS011;63186;51.204;6.536;2024-03-06T05:18:19;15.70;;;7.45;;
74658;SDS011;63186;51.204;6.536;2024-03-06T05:20:45;13.13;;;8.25;;
74658;SDS011;63186;51.204;6.536;2024-03-06T05:23:11;15.82;;;7.40;;
74658;SDS011;63186;51.204;6.536;2024-03-06T05:25:37;12.93;;;8.27;;
74658;SDS011;63186;51.204;6.536;2024-03-06T05:28:03;15.93;;;8.43;;
74658;SDS011;63186;51.204;6.536;2024-03-06T05:30:29;14.60;;;8.10;;
74658;SDS011;63186;51.204;6.536;2024-03-06T05:32:55;17.08;;;9.27;;
74658;SDS011;63186;51.204;6.536;2024-03-06T05:35:20;15.57;;;8.07;;
74658;SDS011;63186;51.204;6.536;2024-03-06T05:37:46;20.13;;;9.55;;
74658;SDS011;63186;51.204;6.536;2024-03-06T05:40:11;14.67;;;8.93;;
74658;SDS011;63186;51.204;6.536;2024-03-06T05:42:37;16.52;;;8.38;;
74658;SDS011;63186;51.204;6.536;2024-03-06T05:45:02;15.20;;;7.97;;
74658;SDS011;63186;51.204;6.536;2024-03-06T05:47:35;18.42;;;8.95;;
74658;SDS011;63186;51.204;6.536;2024-03-06T05:50:00;19.10;;;9.45;;
74658;SDS011;63186;51.204;6.536;2024-03-06T05:52:29;18.27;;;8.20;;
74658;SDS011;63186;51.204;6.536;2024-03-06T05:54:55;14.38;;;7.13;;
74658;SDS011;63186;51.204;6.536;2024-03-06T05:57:20;11.97;;;6.70;;
74658;SDS011;63186;51.204;6.536;2024-03-06T05:59:45;11.23;;;6.00;;
74658;SDS011;63186;51.204;6.536;2024-03-06T06:02:11;13.07;;;7.10;;
74658;SDS011;63186;51.204;6.536;2024-03-06T06:04:36;20.60;;;7.97;;
74658;SDS011;63186;51.204;6.536;2024-03-06T06:07:01;13.37;;;7.00;;
74658;SDS011;63186;51.204;6.536;2024-03-06T06:09:28;20.38;;;9.18;;
74658;SDS011;63186;51.204;6.536;2024-03-06T06:11:53;13.23;;;7.90;;
74658;SDS011;63186;51.204;6.536;2024-03-06T06:14:19;14.07;;;9.13;;
74658;SDS011;63186;51.204;6.536;2024-03-06T06:16:44;12.82;;;6.97;;
74658;SDS011;63186;51.204;6.536;2024-03-06T06:19:10;12.35;;;7.03;;
74658;SDS011;63186;51.204;6.536;2024-03-06T06:21:36;13.93;;;7.57;;
74658;SDS011;63186;51.204;6.536;2024-03-06T06:24:02;18.50;;;7.22;;
74658;SDS011;63186;51.204;6.536;2024-03-06T06:26:29;13.68;;;7.63;;
74658;SDS011;63186;51.204;6.536;2024-03-06T06:28:54;17.33;;;7.82;;
74658;SDS011;63186;51.204;6.536;2024-03-06T06:31:20;12.75;;;7.30;;
74658;SDS011;63186;51.204;6.536;2024-03-06T06:33:45;16.33;;;8.00;;
74658;SDS011;63186;51.204;6.536;2024-03-06T06:36:12;14.00;;;8.00;;
74658;SDS011;63186;51.204;6.536;2024-03-06T06:38:37;12.10;;;7.10;;
74658;SDS011;63186;51.204;6.536;2024-03-06T06:41:03;13.83;;;6.93;;
74658;SDS011;63186;51.204;6.536;2024-03-06T06:43:28;15.80;;;7.45;;
74658;SDS011;63186;51.204;6.536;2024-03-06T06:45:53;18.50;;;9.97;;
74658;SDS011;63186;51.204;6.536;2024-03-06T06:48:19;20.27;;;10.27;;
74658;SDS011;63186;51.204;6.536;2024-03-06T06:50:44;16.23;;;8.13;;
74658;SDS011;63186;51.204;6.536;2024-03-06T06:53:12;14.40;;;8.48;;
74658;SDS011;63186;51.204;6.536;2024-03-06T06:55:37;16.13;;;9.53;;
74658;SDS011;63186;51.204;6.536;2024-03-06T06:58:03;14.27;;;7.70;;
74658;SDS011;63186;51.204;6.536;2024-03-06T07:00:28;16.20;;;7.97;;
74658;SDS011;63186;51.204;6.536;2024-03-06T07:02:55;16.75;;;9.40;;
74658;SDS011;63186;51.204;6.536;2024-03-06T07:05:23;16.33;;;8.45;;
74658;SDS011;63186;51.204;6.536;2024-03-06T07:07:49;15.65;;;8.27;;
74658;SDS011;63186;51.204;6.536;2024-03-06T07:10:14;16.30;;;9.30;;
74658;SDS011;63186;51.204;6.536;2024-03-06T07:12:39;20.30;;;9.17;;
74658;SDS011;63186;51.204;6.536;2024-03-06T07:15:05;17.25;;;8.43;;
74658;SDS011;63186;51.204;6.536;2024-03-06T07:17:31;12.52;;;5.97;;
74658;SDS011;63186;51.204;6.536;2024-03-06T07:19:57;16.52;;;7.75;;
74658;SDS011;63186;51.204;6.536;2024-03-06T07:22:22;11.60;;;6.38;;
74658;SDS011;63186;51.204;6.536;2024-03-06T07:24:48;12.73;;;7.43;;
74658;SDS011;63186;51.204;6.536;2024-03-06T07:27:13;13.68;;;6.95;;
74658;SDS011;63186;51.204;6.536;2024-03-06T07:29:38;11.90;;;6.53;;
74658;SDS011;63186;51.204;6.536;2024-03-06T07:32:04;11.95;;;6.90;;
74658;SDS011;63186;51.204;6.536;2024-03-06T07:34:32;15.82;;;8.63;;
74658;SDS011;63186;51.204;6.536;2024-03-06T07:36:58;15.25;;;7.80;;
74658;SDS011;63186;51.204;6.536;2024-03-06T07:39:24;14.98;;;8.23;;
74658;SDS011;63186;51.204;6.536;2024-03-06T07:41:50;12.68;;;6.75;;
74658;SDS011;63186;51.204;6.536;2024-03-06T07:44:15;15.73;;;7.82;;
74658;SDS011;63186;51.204;6.536;2024-03-06T07:46:41;12.32;;;7.43;;
74658;SDS011;63186;51.204;6.536;2024-03-06T07:49:06;14.23;;;8.90;;
74658;SDS011;63186;51.204;6.536;2024-03-06T07:51:33;16.67;;;8.60;;
74658;SDS011;63186;51.204;6.536;2024-03-06T07:53:59;15.55;;;9.07;;
74658;SDS011;63186;51.204;6.536;2024-03-06T07:56:25;19.63;;;9.43;;
74658;SDS011;63186;51.204;6.536;2024-03-06T07:58:51;14.63;;;7.55;;
74658;SDS011;63186;51.204;6.536;2024-03-06T08:01:16;12.95;;;7.13;;
74658;SDS011;63186;51.204;6.536;2024-03-06T08:03:42;13.48;;;7.07;;
74658;SDS011;63186;51.204;6.536;2024-03-06T08:06:08;11.30;;;6.80;;
74658;SDS011;63186;51.204;6.536;2024-03-06T08:08:34;11.25;;;5.63;;
74658;SDS011;63186;51.204;6.536;2024-03-06T08:11:00;12.13;;;5.85;;
74658;SDS011;63186;51.204;6.536;2024-03-06T08:13:25;10.47;;;5.30;;
74658;SDS011;63186;51.204;6.536;2024-03-06T08:15:50;12.73;;;5.80;;
74658;SDS011;63186;51.204;6.536;2024-03-06T08:18:16;10.60;;;4.47;;
74658;SDS011;63186;51.204;6.536;2024-03-06T08:20:41;9.93;;;4.70;;
74658;SDS011;63186;51.204;6.536;2024-03-06T08:23:07;9.43;;;5.10;;
74658;SDS011;63186;51.204;6.536;2024-03-06T08:25:33;8.82;;;4.40;;
74658;SDS011;63186;51.204;6.536;2024-03-06T08:27:58;12.50;;;5.13;;
74658;SDS011;63186;51.204;6.536;2024-03-06T08:30:24;9.75;;;5.00;;
74658;SDS011;63186;51.204;6.536;2024-03-06T08:32:50;9.25;;;4.80;;
74658;SDS011;63186;51.204;6.536;2024-03-06T08:35:16;9.57;;;4.15;;
74658;SDS011;63186;51.204;6.536;2024-03-06T08:37:43;10.48;;;5.03;;
74658;SDS011;63186;51.204;6.536;2024-03-06T08:40:09;9.48;;;4.88;;
74658;SDS011;63186;51.204;6.536;2024-03-06T08:42:39;9.52;;;4.43;;
74658;SDS011;63186;51.204;6.536;2024-03-06T08:45:07;8.00;;;4.15;;
74658;SDS011;63186;51.204;6.536;2024-03-06T08:47:33;9.18;;;4.07;;
74658;SDS011;63186;51.204;6.536;2024-03-06T08:49:59;7.72;;;3.85;;
74658;SDS011;63186;51.204;6.536;2024-03-06T08:52:24;7.20;;;3.93;;
74658;SDS011;63186;51.204;6.536;2024-03-06T08:54:50;6.75;;;3.42;;
74658;SDS011;63186;51.204;6.536;2024-03-06T08:57:15;9.45;;;3.95;;
74658;SDS011;63186;51.204;6.536;2024-03-06T08:59:41;7.43;;;3.65;;
74658;SDS011;63186;51.204;6.536;2024-03-06T09:02:12;8.88;;;3.65;;
74658;SDS011;63186;51.204;6.536;2024-03-06T09:04:41;8.63;;;3.92;;
74658;SDS011;63186;51.204;6.536;2024-03-06T09:07:07;12.90;;;3.85;;
74658;SDS011;63186;51.204;6.536;2024-03-06T09:09:33;8.27;;;4.47;;
74658;SDS011;63186;51.204;6.536;2024-03-06T09:12:02;8.00;;;3.55;;
74658;SDS011;63186;51.204;6.536;2024-03-06T09:14:30;10.18;;;3.80;;
74658;SDS011;63186;51.204;6.536;2024-03-06T09:16:56;11.57;;;5.35;;
74658;SDS011;63186;51.204;6.536;2024-03-06T09:19:22;9.50;;;5.30;;
74658;SDS011;63186;51.204;6.536;2024-03-06T09:21:47;9.15;;;4.90;;
74658;SDS011;63186;51.204;6.536;2024-03-06T09:24:13;12.73;;;5.45;;
74658;SDS011;63186;51.204;6.536;2024-03-06T09:26:39;9.67;;;5.07;;
74658;SDS011;63186;51.204;6.536;2024-03-06T09:29:04;13.15;;;5.55;;
74658;SDS011;63186;51.204;6.536;2024-03-06T09:31:29;10.95;;;4.97;;
74658;SDS011;63186;51.204;6.536;2024-03-06T09:33:55;12.27;;;5.50;;
74658;SDS011;63186;51.204;6.536;2024-03-06T09:36:20;10.37;;;4.63;;
74658;SDS011;63186;51.204;6.536;2024-03-06T09:38:46;14.32;;;5.57;;
74658;SDS011;63186;51.204;6.536;2024-03-06T09:41:11;11.20;;;5.50;;
74658;SDS011;63186;51.204;6.536;2024-03-06T09:43:36;11.02;;;4.68;;
74658;SDS011;63186;51.204;6.536;2024-03-06T09:46:02;13.07;;;5.65;;
74658;SDS011;63186;51.204;6.536;2024-03-06T09:48:29;11.63;;;5.03;;
74658;SDS011;63186;51.204;6.536;2024-03-06T09:50:54;11.35;;;5.20;;
74658;SDS011;63186;51.204;6.536;2024-03-06T09:53:25;13.25;;;5.47;;
74658;SDS011;63186;51.204;6.536;2024-03-06T09:55:51;10.93;;;5.45;;
74658;SDS011;63186;51.204;6.536;2024-03-06T09:58:17;10.18;;;5.25;;
74658;SDS011;63186;51.204;6.536;2024-03-06T10:00:42;9.60;;;5.07;;
74658;SDS011;63186;51.204;6.536;2024-03-06T10:03:09;12.10;;;4.55;;
74658;SDS011;63186;51.204;6.536;2024-03-06T10:05:36;10.00;;;5.20;;
74658;SDS011;63186;51.204;6.536;2024-03-06T10:08:02;9.30;;;4.72;;
74658;SDS011;63186;51.204;6.536;2024-03-06T10:10:29;10.43;;;5.18;;
74658;SDS011;63186;51.204;6.536;2024-03-06T10:12:54;9.32;;;4.88;;
74658;SDS011;63186;51.204;6.536;2024-03-06T10:15:22;12.23;;;5.53;;
74658;SDS011;63186;51.204;6.536;2024-03-06T10:17:47;12.18;;;5.78;;
74658;SDS011;63186;51.204;6.536;2024-03-06T10:20:17;13.30;;;5.93;;
74658;SDS011;63186;51.204;6.536;2024-03-06T10:22:48;11.00;;;5.65;;
74658;SDS011;63186;51.204;6.536;2024-03-06T10:25:14;12.10;;;5.60;;
74658;SDS011;63186;51.204;6.536;2024-03-06T10:27:39;11.30;;;6.60;;
74658;SDS011;63186;51.204;6.536;2024-03-06T10:30:05;12.30;;;6.88;;
74658;SDS011;63186;51.204;6.536;2024-03-06T10:32:36;13.15;;;6.20;;
74658;SDS011;63186;51.204;6.536;2024-03-06T10:35:01;12.68;;;6.20;;
74658;SDS011;63186;51.204;6.536;2024-03-06T10:37:27;11.57;;;5.97;;
74658;SDS011;63186;51.204;6.536;2024-03-06T10:39:54;11.85;;;7.15;;
74658;SDS011;63186;51.204;6.536;2024-03-06T10:42:22;12.32;;;6.78;;
74658;SDS011;63186;51.204;6.536;2024-03-06T10:44:52;13.27;;;7.68;;
74658;SDS011;63186;51.204;6.536;2024-03-06T10:47:21;12.48;;;6.45;;
74658;SDS011;63186;51.204;6.536;2024-03-06T10:49:51;18.67;;;8.52;;
74658;SDS011;63186;51.204;6.536;2024-03-06T10:52:18;13.43;;;7.10;;
74658;SDS011;63186;51.204;6.536;2024-03-06T10:54:44;13.73;;;7.05;;
74658;SDS011;63186;51.204;6.536;2024-03-06T10:57:13;11.55;;;6.07;;
74658;SDS011;63186;51.204;6.536;2024-03-06T10:59:39;11.95;;;7.28;;
74658;SDS011;63186;51.204;6.536;2024-03-06T11:02:07;14.05;;;6.68;;
74658;SDS011;63186;51.204;6.536;2024-03-06T11:04:34;13.95;;;6.90;;
74658;SDS011;63186;51.204;6.536;2024-03-06T11:07:04;14.90;;;8.13;;
74658;SDS011;63186;51.204;6.536;2024-03-06T11:09:36;15.23;;;7.10;;
74658;SDS011;63186;51.204;6.536;2024-03-06T11:12:05;14.60;;;7.43;;
74658;SDS011;63186;51.204;6.536;2024-03-06T11:14:37;16.70;;;9.52;;
74658;SDS011;63186;51.204;6.536;2024-03-06T11:17:04;18.88;;;9.40;;
74658;SDS011;63186;51.204;6.536;2024-03-06T11:19:32;18.75;;;9.55;;
74658;SDS011;63186;51.204;6.536;2024-03-06T11:33:12;16.08;;;9.07;;
74658;SDS011;63186;51.204;6.536;2024-03-06T11:35:43;15.55;;;9.27;;
74658;SDS011;63186;51.204;6.536;2024-03-06T11:38:29;15.75;;;8.50;;
74658;SDS011;63186;51.204;6.536;2024-03-06T11:40:54;15.48;;;7.65;;
74658;SDS011;63186;51.204;6.536;2024-03-06T11:43:23;19.17;;;9.60;;
74658;SDS011;63186;51.204;6.536;2024-03-06T11:45:49;16.70;;;10.15;;
74658;SDS011;63186;51.204;6.536;2024-03-06T11:48:15;15.45;;;8.77;;
74658;SDS011;63186;51.204;6.536;2024-03-06T11:50:44;16.23;;;8.85;;
74658;SDS011;63186;51.204;6.536;2024-03-06T11:53:10;15.32;;;8.90;;
74658;SDS011;63186;51.204;6.536;2024-03-06T11:55:36;16.15;;;8.80;;
74658;SDS011;63186;51.204;6.536;2024-03-06T11:58:01;12.57;;;7.23;;
74658;SDS011;63186;51.204;6.536;2024-03-06T12:00:29;12.32;;;6.30;;
74658;SDS011;63186;51.204;6.536;2024-03-06T12:02:55;11.05;;;6.18;;
74658;SDS011;63186;51.204;6.536;2024-03-06T12:05:21;12.60;;;5.40;;
74658;SDS011;63186;51.204;6.536;2024-03-06T12:07:51;7.97;;;4.10;;
74658;SDS011;63186;51.204;6.536;2024-03-06T12:10:17;8.05;;;3.60;;
74658;SDS011;63186;51.204;6.536;2024-03-06T12:12:43;10.93;;;5.68;;
74658;SDS011;63186;51.204;6.536;2024-03-06T12:15:10;14.65;;;7.65;;
74658;SDS011;63186;51.204;6.536;2024-03-06T12:17:46;13.95;;;7.50;;
74658;SDS011;63186;51.204;6.536;2024-03-06T12:20:13;17.63;;;8.00;;
74658;SDS011;63186;51.204;6.536;2024-03-06T12:25:46;14.93;;;8.32;;
74658;SDS011;63186;51.204;6.536;2024-03-06T12:28:07;14.75;;;7.50;;
74658;SDS011;63186;51.204;6.536;2024-03-06T12:30:42;14.85;;;7.82;;
74658;SDS011;63186;51.204;6.536;2024-03-06T12:33:08;16.30;;;8.63;;
74658;SDS011;63186;51.204;6.536;2024-03-06T12:35:41;17.90;;;8.90;;
74658;SDS011;63186;51.204;6.536;2024-03-06T12:38:13;19.02;;;8.98;;
74658;SDS011;63186;51.204;6.536;2024-03-06T12:40:42;16.40;;;8.80;;
74658;SDS011;63186;51.204;6.536;2024-03-06T12:43:07;17.42;;;8.27;;
74658;SDS011;63186;51.204;6.536;2024-03-06T12:45:33;16.70;;;8.80;;
74658;SDS011;63186;51.204;6.536;2024-03-06T12:47:59;20.02;;;9.57;;
74658;SDS011;63186;51.204;6.536;2024-03-06T12:50:25;18.80;;;9.57;;
74658;SDS011;63186;51.204;6.536;2024-03-06T12:52:50;19.53;;;10.73;;
74658;SDS011;63186;51.204;6.536;2024-03-06T12:55:17;17.70;;;9.65;;
74658;SDS011;63186;51.204;6.536;2024-03-06T12:57:42;18.10;;;8.73;;
74658;SDS011;63186;51.204;6.536;2024-03-06T13:00:08;17.65;;;8.38;;
74658;SDS011;63186;51.204;6.536;2024-03-06T13:02:41;18.77;;;9.88;;
74658;SDS011;63186;51.204;6.536;2024-03-06T13:05:10;20.17;;;9.80;;
74658;SDS011;63186;51.204;6.536;2024-03-06T13:07:35;18.45;;;9.52;;
74658;SDS011;63186;51.204;6.536;2024-03-06T13:10:01;19.35;;;9.63;;
74658;SDS011;63186;51.204;6.536;2024-03-06T13:12:28;17.75;;;9.50;;
74658;SDS011;63186;51.204;6.536;2024-03-06T13:14:53;16.73;;;8.10;;
74658;SDS011;63186;51.204;6.536;2024-03-06T13:17:19;16.80;;;8.00;;
74658;SDS011;63186;51.204;6.536;2024-03-06T13:19:44;17.33;;;8.80;;
74658;SDS011;63186;51.204;6.536;2024-03-06T13:22:09;18.42;;;9.27;;
74658;SDS011;63186;51.204;6.536;2024-03-06T13:24:35;19.93;;;10.03;;
74658;SDS011;63186;51.204;6.536;2024-03-06T13:27:00;19.58;;;10.18;;
74658;SDS011;63186;51.204;6.536;2024-03-06T13:29:26;21.85;;;11.60;;
74658;SDS011;63186;51.204;6.536;2024-03-06T13:31:51;22.60;;;12.00;;
74658;SDS011;63186;51.204;6.536;2024-03-06T13:34:16;22.17;;;12.18;;
74658;SDS011;63186;51.204;6.536;2024-03-06T13:36:42;20.48;;;10.70;;
74658;SDS011;63186;51.204;6.536;2024-03-06T13:39:08;19.83;;;10.10;;
74658;SDS011;63186;51.204;6.536;2024-03-06T13:41:34;22.13;;;10.35;;
74658;SDS011;63186;51.204;6.536;2024-03-06T13:43:59;17.97;;;9.07;;
74658;SDS011;63186;51.204;6.536;2024-03-06T13:46:24;20.70;;;10.53;;
74658;SDS011;63186;51.204;6.536;2024-03-06T13:48:50;21.80;;;9.65;;
74658;SDS011;63186;51.204;6.536;2024-03-06T13:51:15;20.20;;;9.88;;
74658;SDS011;63186;51.204;6.536;2024-03-06T13:53:40;19.17;;;8.93;;
74658;SDS011;63186;51.204;6.536;2024-03-06T13:56:06;19.93;;;10.63;;
74658;SDS011;63186;51.204;6.536;2024-03-06T13:58:33;18.08;;;8.75;;
74658;SDS011;63186;51.204;6.536;2024-03-06T14:00:58;18.10;;;9.43;;
74658;SDS011;63186;51.204;6.536;2024-03-06T14:03:24;16.33;;;8.25;;
74658;SDS011;63186;51.204;6.536;2024-03-06T14:05:50;18.85;;;9.15;;
74658;SDS011;63186;51.204;6.536;2024-03-06T14:08:16;18.92;;;8.45;;
74658;SDS011;63186;51.204;6.536;2024-03-06T14:10:41;19.65;;;10.05;;
74658;SDS011;63186;51.204;6.536;2024-03-06T14:13:07;16.40;;;9.05;;
74658;SDS011;63186;51.204;6.536;2024-03-06T14:15:33;17.85;;;8.80;;
74658;SDS011;63186;51.204;6.536;2024-03-06T14:17:59;20.38;;;8.93;;
74658;SDS011;63186;51.204;6.536;2024-03-06T14:20:26;18.95;;;10.15;;
74658;SDS011;63186;51.204;6.536;2024-03-06T14:22:52;18.40;;;8.88;;
74658;SDS011;63186;51.204;6.536;2024-03-06T14:25:18;19.08;;;9.13;;
74658;SDS011;63186;51.204;6.536;2024-03-06T14:27:44;16.25;;;8.20;;
74658;SDS011;63186;51.204;6.536;2024-03-06T14:30:10;19.20;;;10.25;;
74658;SDS011;63186;51.204;6.536;2024-03-06T14:32:37;17.27;;;8.73;;
74658;SDS011;63186;51.204;6.536;2024-03-06T14:35:02;19.38;;;9.02;;
74658;SDS011;63186;51.204;6.536;2024-03-06T14:37:28;19.80;;;8.13;;
74658;SDS011;63186;51.204;6.536;2024-03-06T14:39:53;18.02;;;9.07;;
74658;SDS011;63186;51.204;6.536;2024-03-06T14:42:19;19.35;;;8.75;;
74658;SDS011;63186;51.204;6.536;2024-03-06T14:44:44;17.97;;;7.97;;